Data for 05/11/2005

Time Sea-Level Adjusted Pressure Absolute Pressure Temperature Relative Humidity Dew Point   
(mb) (inHg) (mb) (inHg) (C) (F) (%) (C) (F)
00:05 1017 30.03 846 24.98 4 39.1 89 2.3 36.1
00:10 1017 30.03 846 24.98 3.9 39.1 88 2.2 35.9
00:15 1017 30.03 846 24.98 3.9 39 90 2.3 36.2
00:20 1017 30.03 846 24.98 3.8 38.9 90 2.2 36
00:25 1017 30.03 846 24.98 3.8 38.9 89 2.2 36
00:30 1017 30.03 846 24.98 3.9 38.9 90 2.3 36.1
00:35 1017 30.03 846 24.98 3.9 39.1 88 2.2 36
00:40 1017 30.03 846 24.98 4 39.2 88 2.1 35.8
00:45 1017 30.03 846 24.98 4 39.2 88 2.1 35.8
00:50 1017 30.03 846 24.98 4 39.2 88 2.1 35.8
00:55 1017 30.03 846 24.98 4 39.2 88 2.1 35.8
01:00 1017 30.03 846 24.98 3.9 39.1 87 2 35.7
01:05 1017 30.03 846 24.98 3.9 39 88 2 35.6
01:10 1017 30.03 846 24.98 4 39.1 87 2 35.5
01:15 1017 30.03 846 24.98 4 39.1 88 2.1 35.9
01:20 1017 30.03 846 24.98 3.9 38.9 89 2.2 35.9
01:25 1017 30.03 846 24.98 3.7 38.7 89 2.1 35.8
01:30 1017 30.03 846 24.98 3.6 38.5 90 2.1 35.7
01:35 1017 30.03 846 24.98 3.5 38.3 91 2.1 35.8
01:40 1017 30.03 846 24.98 3.4 38.2 91 2.2 35.9
01:45 1017 30.03 846 24.98 3.4 38.1 92 2.3 36.1
01:50 1017 30.03 846 24.98 3.4 38 93 2.3 36.1
01:55 1017 30.03 846 24.98 3.4 38.1 93 2.4 36.3
02:00 1017 30.03 846 24.98 3.3 38 94 2.4 36.3
02:05 1017 30.03 846 24.98 3.3 37.9 94 2.4 36.4
02:10 1017 30.03 846 24.98 3.3 38 93 2.3 36.2
02:15 1017 30.03 846 24.98 3.5 38.3 92 2.3 36.1
02:20 1017 30.03 846 24.98 3.7 38.6 92 2.4 36.4
02:25 1017 30.03 846 24.98 3.8 38.8 91 2.4 36.4
02:30 1017 30.03 846 24.98 3.9 39 91 2.5 36.5
02:35 1017 30.03 846 24.98 4 39.1 90 2.5 36.5
02:40 1017 30.03 846 24.98 4 39.2 90 2.6 36.6
02:45 1017 30.03 846 24.98 4 39.1 91 2.6 36.7
02:50 1017 30.03 846 24.98 4 39.2 90 2.5 36.6
02:55 1017 30.03 846 24.98 4.1 39.4 89 2.5 36.5
03:00 1017 30.03 846 24.98 4.2 39.5 89 2.5 36.6
03:05 1017 30.03 846 24.98 4.1 39.4 88 2.4 36.3
03:10 1017 30.03 846 24.98 4.1 39.4 89 2.4 36.4
03:15 1017 30.03 846 24.98 4.2 39.5 89 2.5 36.6
03:20 1017 30.03 846 24.98 4.2 39.6 90 2.7 36.9
03:25 1017 30.03 846 24.98 4.1 39.3 89 2.5 36.4
03:30 1017 30.03 846 24.98 4 39.2 90 2.5 36.5
03:35 1017 30.03 846 24.98 3.9 39 89 2.3 36.2
03:40 1017 30.03 846 24.98 3.9 38.9 90 2.4 36.3
03:45 1017 30.03 846 24.98 3.9 39 89 2.3 36.1
03:50 1017 30.03 846 24.98 3.8 38.8 90 2.3 36.1
03:55 1017 30.03 846 24.98 3.7 38.7 90 2.2 36
04:00 1017 30.03 846 24.98 3.7 38.7 90 2.2 35.9
04:05 1016 30 846 24.98 3.7 38.6 90 2.2 36
04:10 1016 30 846 24.98 3.8 38.8 89 2.2 35.9
04:15 1016 30 846 24.98 3.8 38.9 89 2.1 35.9
04:20 1016 30 846 24.98 4 39.2 88 2.2 35.9
04:25 1016 30 846 24.98 4.3 39.7 85 2 35.6
04:30 1016 30 845 24.95 4.5 40.2 86 2.3 36.2
04:35 1016 30 845 24.95 4.5 40.1 85 2.1 35.9
04:40 1016 30 845 24.95 4.6 40.3 85 2.3 36.1
04:45 1016 30 845 24.95 4.6 40.3 84 2.1 35.7
04:50 1016 30 845 24.95 4.7 40.4 84 2.3 36.1
04:55 1016 30 845 24.95 4.6 40.3 85 2.3 36.1
05:00 1016 30 845 24.95 4.7 40.4 84 2.1 35.9
05:05 1016 30 845 24.95 4.7 40.4 83 2 35.6
05:10 1016 30 845 24.95 4.6 40.3 84 2.2 36
05:15 1016 30 845 24.95 4.5 40.1 85 2.2 36
05:20 1016 30 845 24.95 4.4 40 86 2.2 36
05:25 1016 30 845 24.95 4.5 40.1 86 2.4 36.3
05:30 1016 30 845 24.95 4.4 40 87 2.4 36.3
05:35 1016 30 845 24.95 4.4 39.9 87 2.4 36.3
05:40 1016 30 845 24.95 4.3 39.8 87 2.4 36.3
05:45 1016 30 845 24.95 4.3 39.7 87 2.4 36.2
05:50 1016 30 845 24.95 4.3 39.7 87 2.3 36.1
05:55 1016 30 845 24.95 4.3 39.7 87 2.3 36.2
06:00 1016 30 846 24.98 4.3 39.7 86 2.2 35.9
06:05 1016 30 845 24.95 4.5 40.1 85 2.1 35.8
06:10 1016 30 846 24.98 4.4 40 86 2.3 36.2
06:15 1016 30 846 24.98 4.2 39.6 87 2.2 35.9
06:20 1016 30 846 24.98 4.2 39.6 86 2.1 35.8
06:25 1016 30 846 24.98 4.1 39.4 85 1.9 35.4
06:30 1016 30 846 24.98 4.1 39.3 86 1.9 35.4
06:35 1016 30 846 24.98 3.9 39.1 87 1.9 35.4
06:40 1017 30.03 846 24.98 3.9 38.9 87 1.9 35.4
06:45 1017 30.03 846 24.98 3.9 39 86 1.7 35.1
06:50 1017 30.03 846 24.98 3.8 38.9 86 1.8 35.2
06:55 1017 30.03 846 24.98 3.8 38.8 87 1.7 35.1
07:00 1017 30.03 846 24.98 3.7 38.6 87 1.8 35.2
07:05 1017 30.03 846 24.98 3.6 38.5 88 1.7 35.1
07:10 1017 30.03 846 24.98 3.5 38.4 87 1.6 35
07:15 1017 30.03 846 24.98 3.5 38.3 87 1.6 34.9
07:20 1017 30.03 846 24.98 3.4 38.2 87 1.5 34.8
07:25 1017 30.03 846 24.98 3.5 38.3 86 1.4 34.6
07:30 1017 30.03 846 24.98 3.6 38.4 87 1.5 34.8
07:35 1017 30.03 846 24.98 3.6 38.4 86 1.4 34.5
07:40 1017 30.03 846 24.98 3.7 38.6 86 1.5 34.8
07:45 1017 30.03 846 24.98 3.7 38.6 86 1.5 34.7
07:50 1017 30.03 846 24.98 3.9 39 82 1.1 34.1
07:55 1017 30.03 846 24.98 4 39.3 83 1.5 34.7
08:00 1017 30.03 846 24.98 4.1 39.3 82 1.3 34.3
08:05 1017 30.03 846 24.98 4.3 39.7 82 1.4 34.5
08:10 1017 30.03 846 24.98 4.1 39.4 83 1.5 34.7
08:15 1017 30.03 846 24.98 3.9 39 84 1.3 34.4
08:20 1017 30.03 846 24.98 3.8 38.8 83 1.2 34.1
08:25 1017 30.03 846 24.98 3.7 38.6 84 1.3 34.3
08:30 1017 30.03 846 24.98 3.5 38.4 85 1.2 34.2
08:35 1017 30.03 846 24.98 3.5 38.2 85 1.2 34.2
08:40 1017 30.03 846 24.98 3.5 38.2 85 1.2 34.2
08:45 1017 30.03 846 24.98 3.4 38.1 85 1.1 34.1
08:50 1017 30.03 846 24.98 3.4 38.1 86 1.3 34.3
08:55 1017 30.03 846 24.98 3.3 38 86 1.2 34.1
09:00 1017 30.03 846 24.98 3.3 38 85 1.1 33.9
09:05 1017 30.03 846 24.98 3.7 38.6 83 1 33.7
09:10 1017 30.03 846 24.98 3.9 39 82 1.1 33.9
09:15 1017 30.03 847 25.01 4.2 39.5 81 1.3 34.3
09:20 1017 30.03 846 24.98 4.1 39.3 83 1.4 34.6
09:25 1017 30.03 847 25.01 3.9 39 83 1.3 34.4
09:30 1017 30.03 847 25.01 4.1 39.4 83 1.4 34.5
09:35 1017 30.03 847 25.01 4.4 39.9 78 0.9 33.6
09:40 1017 30.03 847 25.01 4.6 40.2 80 1.4 34.5
09:45 1017 30.03 847 25.01 4.6 40.2 81 1.6 34.8
09:50 1017 30.03 847 25.01 4.6 40.3 80 1.5 34.7
09:55 1017 30.03 847 25.01 4.5 40.2 78 1 33.8
10:00 1017 30.03 847 25.01 4.5 40.1 81 1.4 34.6
10:05 1018 30.06 847 25.01 4.4 39.9 82 1.6 34.9
10:10 1018 30.06 847 25.01 4.3 39.7 82 1.5 34.7
10:15 1018 30.06 847 25.01 4.3 39.7 79 1 33.7
10:20 1018 30.06 847 25.01 4.3 39.8 78 0.8 33.4
10:25 1018 30.06 847 25.01 4.1 39.5 82 1.3 34.3
10:30 1018 30.06 847 25.01 3.8 38.9 84 1.3 34.4
10:35 1018 30.06 847 25.01 3.9 38.9 82 1 33.8
10:40 1018 30.06 847 25.01 3.9 39 81 1 33.8
10:45 1018 30.06 847 25.01 4 39.2 79 0.6 33.2
10:50 1018 30.06 848 25.04 4 39.1 79 0.6 33
10:55 1018 30.06 848 25.04 3.8 38.8 80 0.6 33.1
11:00 1019 30.09 848 25.04 3.5 38.3 83 0.8 33.4
11:05 1018 30.06 848 25.04 3.4 38.1 79 0 32
11:10 1018 30.06 848 25.04 3.4 38.1 78 -0.1 31.7
11:15 1018 30.06 848 25.04 3.4 38.2 77 -0.2 31.6
11:20 1019 30.09 848 25.04 3.4 38.1 76 -0.3 31.4
11:25 1019 30.09 848 25.04 3.6 38.4 75 -0.4 31.3
11:30 1019 30.09 848 25.04 3.7 38.7 76 -0.2 31.7
11:35 1019 30.09 848 25.04 3.8 38.8 74 -0.3 31.4
11:40 1019 30.09 848 25.04 3.7 38.6 76 -0.1 31.7
11:45 1019 30.09 848 25.04 3.8 38.8 77 0.1 32.1
11:50 1019 30.09 848 25.04 3.6 38.5 77 -0.1 31.9
11:55 1019 30.09 848 25.04 3.5 38.3 79 0.1 32.2
12:00 1019 30.09 848 25.04 3.6 38.4 78 0.1 32.1
12:05 1019 30.09 848 25.04 3.7 38.6 75 -0.3 31.5
12:10 1019 30.09 848 25.04 3.8 38.8 75 -0.2 31.7
12:15 1019 30.09 848 25.04 4 39.2 75 -0.1 31.9
12:20 1019 30.09 848 25.04 4.1 39.3 75 -0 32
12:25 1019 30.09 848 25.04 3.9 39 76 0 32
12:30 1019 30.09 848 25.04 3.9 39 75 -0.1 31.8
12:35 1019 30.09 848 25.04 3.8 38.8 76 -0.1 31.8
12:40 1019 30.09 848 25.04 3.6 38.5 78 0.1 32.3
12:45 1019 30.09 848 25.04 3.6 38.4 78 0 32.1
12:50 1018 30.06 848 25.04 3.4 38.2 80 0.4 32.7
12:55 1019 30.09 848 25.04 3.2 37.7 81 0.3 32.5
13:00 1019 30.09 848 25.04 3.1 37.5 81 0.2 32.3
13:05 1019 30.09 848 25.04 3.1 37.6 84 0.6 33.2
13:10 1019 30.09 848 25.04 2.9 37.3 83 0.3 32.5
13:15 1018 30.06 848 25.04 2.8 37.1 82 0.1 32.2
13:20 1019 30.09 848 25.04 2.8 37 85 0.5 32.9
13:25 1019 30.09 848 25.04 2.7 36.8 84 0.2 32.3
13:30 1019 30.09 848 25.04 2.8 37 83 0.1 32.3
13:35 1019 30.09 848 25.04 2.9 37.2 81 -0.1 31.9
13:40 1019 30.09 848 25.04 3 37.4 82 0.2 32.4
13:45 1019 30.09 848 25.04 2.9 37.2 82 0.1 32.2
13:50 1019 30.09 848 25.04 2.9 37.2 82 0.2 32.3
13:55 1019 30.09 848 25.04 2.7 36.9 84 0.3 32.6
14:00 1019 30.09 848 25.04 2.6 36.7 83 -0.1 31.9
14:05 1019 30.09 848 25.04 2.6 36.6 84 0.2 32.3
14:10 1019 30.09 848 25.04 2.7 36.9 83 0 32
14:15 1019 30.09 848 25.04 2.7 36.8 83 0.1 32.2
14:20 1019 30.09 848 25.04 2.6 36.6 83 0 32
14:25 1019 30.09 848 25.04 2.5 36.5 83 -0.1 31.9
14:30 1019 30.09 848 25.04 2.5 36.6 83 0 32
14:35 1019 30.09 848 25.04 2.8 37 81 -0.2 31.7
14:40 1019 30.09 848 25.04 2.9 37.2 80 -0.2 31.6
14:45 1019 30.09 848 25.04 2.9 37.2 80 -0.2 31.7
14:50 1019 30.09 848 25.04 2.9 37.3 80 -0.2 31.7
14:55 1019 30.09 848 25.04 2.9 37.2 82 0.1 32.2
15:00 1019 30.09 848 25.04 3.1 37.5 79 -0.2 31.6
15:05 1019 30.09 848 25.04 3.4 38 77 -0.3 31.5
15:10 1019 30.09 848 25.04 3.5 38.4 77 -0.1 31.9
15:15 1019 30.09 848 25.04 3.6 38.6 74 -0.5 31
15:20 1019 30.09 848 25.04 4 39.2 72 -0.7 30.8
15:25 1019 30.09 848 25.04 4 39.3 71 -0.8 30.6
15:30 1019 30.09 848 25.04 3.8 38.9 74 -0.3 31.4
15:35 1019 30.09 848 25.04 3.6 38.5 71 -1.1 30
15:40 1019 30.09 848 25.04 3.7 38.6 72 -0.8 30.5
15:45 1019 30.09 848 25.04 3.8 38.8 70 -1.2 29.8
15:50 1019 30.09 848 25.04 3.9 39 72 -0.7 30.8
15:55 1019 30.09 848 25.04 3.9 39 73 -0.4 31.2
16:00 1019 30.09 848 25.04 4.2 39.6 67 -1.2 29.8
16:05 1019 30.09 848 25.04 4.3 39.8 68 -1.1 30.1
16:10 1019 30.09 848 25.04 4.5 40.1 67 -1.1 30
16:15 1019 30.09 848 25.04 4.1 39.3 70 -0.8 30.5
16:20 1019 30.09 848 25.04 3.9 39.1 67 -1.5 29.2
16:25 1019 30.09 848 25.04 4.3 39.7 67 -1.3 29.6
16:30 1019 30.09 848 25.04 4.5 40.1 66 -1.2 29.8
16:35 1019 30.09 848 25.04 4.1 39.4 68 -1.3 29.7
16:40 1019 30.09 848 25.04 3.8 38.9 76 0 32.1
16:45 1019 30.09 848 25.04 3.5 38.3 75 -0.5 31.1
16:50 1019 30.09 848 25.04 3.2 37.8 76 -0.6 30.9
16:55 1019 30.09 848 25.04 3.2 37.8 73 -1.1 30.1
17:00 1019 30.09 848 25.04 3.4 38.2 72 -1.1 30.1
17:05 1019 30.09 848 25.04 3.3 38 76 -0.6 31
17:10 1019 30.09 848 25.04 3.4 38.1 77 -0.2 31.6
17:15 1019 30.09 848 25.04 3 37.4 78 -0.4 31.2
17:20 1019 30.09 848 25.04 2.8 37 79 -0.6 31
17:25 1019 30.09 848 25.04 3 37.4 78 -0.5 31.1
17:30 1019 30.09 848 25.04 3.2 37.7 75 -0.8 30.6
17:35 1019 30.09 848 25.04 3.2 37.7 80 0 32
17:40 1019 30.09 848 25.04 2.6 36.7 81 -0.3 31.5
17:45 1019 30.09 848 25.04 2.7 36.8 79 -0.7 30.8
17:50 1019 30.09 848 25.04 2.7 36.8 79 -0.7 30.8
17:55 1019 30.09 848 25.04 3 37.3 78 -0.5 31
18:00 1019 30.09 848 25.04 2.9 37.2 79 -0.4 31.4
18:05 1019 30.09 848 25.04 2.6 36.6 80 -0.5 31.2
18:10 1019 30.09 848 25.04 2.7 36.8 77 -0.9 30.3
18:15 1019 30.09 848 25.04 2.9 37.2 77 -0.7 30.7
18:20 1019 30.09 848 25.04 2.8 37 77 -0.9 30.4
18:25 1019 30.09 848 25.04 2.6 36.7 79 -0.7 30.8
18:30 1019 30.09 848 25.04 2.8 37 78 -0.7 30.7
18:35 1019 30.09 848 25.04 2.7 36.8 79 -0.7 30.8
18:40 1019 30.09 848 25.04 2.5 36.5 78 -1 30.1
18:45 1019 30.09 848 25.04 2.5 36.5 76 -1.4 29.5
18:50 1019 30.09 848 25.04 2.6 36.6 73 -1.8 28.7
18:55 1019 30.09 848 25.04 2.5 36.5 75 -1.4 29.5
19:00 1019 30.09 848 25.04 2.2 36 78 -1.2 29.9
19:05 1019 30.09 848 25.04 2 35.6 79 -1.3 29.7
19:10 1019 30.09 848 25.04 2 35.5 79 -1.3 29.6
19:15 1019 30.09 848 25.04 1.9 35.4 79 -1.4 29.5
19:20 1019 30.09 848 25.04 1.6 34.8 80 -1.5 29.3
19:25 1019 30.09 848 25.04 1.5 34.7 79 -1.7 28.9
19:30 1019 30.09 848 25.04 1.3 34.3 79 -2 28.4
19:35 1019 30.09 848 25.04 1.2 34.2 78 -2.2 28.1
19:40 1019 30.09 848 25.04 1.1 34 78 -2.2 28
19:45 1019 30.09 848 25.04 1 33.8 79 -2.2 28
19:50 1019 30.09 848 25.04 0.9 33.6 80 -2.2 28.1
19:55 1019 30.09 848 25.04 0.7 33.3 79 -2.5 27.5
20:00 1019 30.09 848 25.04 0.5 32.9 82 -2.2 28.1
20:05 1019 30.09 848 25.04 0.2 32.4 85 -2.1 28.3
20:10 1019 30.09 848 25.04 0.1 32.1 85 -2.2 28.1
20:15 1019 30.09 848 25.04 0 32 83 -2.5 27.4
20:20 1019 30.09 849 25.07 -0.1 31.8 84 -2.5 27.4
20:25 1019 30.09 848 25.04 -0.1 31.8 82 -2.8 27
20:30 1019 30.09 848 25.04 -0.2 31.7 83 -2.7 27.1
20:35 1019 30.09 849 25.07 -0.3 31.5 82 -3 26.6
20:40 1019 30.09 848 25.04 -0.2 31.6 81 -3.1 26.4
20:45 1019 30.09 849 25.07 -0.4 31.3 82 -3.1 26.4
20:50 1020 30.12 849 25.07 -0.4 31.3 81 -3.3 26
20:55 1020 30.12 849 25.07 -0.4 31.3 81 -3.4 25.9
21:00 1020 30.12 849 25.07 -0.4 31.2 81 -3.3 26.1
21:05 1020 30.12 849 25.07 -0.5 31.1 81 -3.3 26
21:10 1020 30.12 849 25.07 -0.5 31.2 81 -3.4 25.9
21:15 1020 30.12 849 25.07 -0.6 30.9 81 -3.4 25.9
21:20 1020 30.12 849 25.07 -0.7 30.7 83 -3.3 26.1
21:25 1020 30.12 849 25.07 -0.7 30.7 83 -3.2 26.2
21:30 1020 30.12 849 25.07 -0.8 30.5 84 -3.2 26.2
21:35 1020 30.12 849 25.07 -0.9 30.4 84 -3.3 26.1
21:40 1020 30.12 849 25.07 -0.9 30.4 85 -3.1 26.4
21:45 1020 30.12 849 25.07 -0.9 30.4 85 -3.2 26.3
21:50 1020 30.12 849 25.07 -0.9 30.4 84 -3.3 26
21:55 1020 30.12 849 25.07 -0.9 30.4 83 -3.5 25.8
22:00 1020 30.12 849 25.07 -0.7 30.7 81 -3.6 25.6
22:05 1020 30.12 849 25.07 -0.7 30.7 81 -3.6 25.6
22:10 1020 30.12 849 25.07 -0.7 30.8 81 -3.6 25.5
22:15 1020 30.12 849 25.07 -0.7 30.7 80 -3.7 25.3
22:20 1020 30.12 849 25.07 -0.8 30.6 81 -3.7 25.3
22:25 1020 30.12 849 25.07 -0.7 30.7 81 -3.6 25.5
22:30 1020 30.12 849 25.07 -0.8 30.6 81 -3.6 25.5
22:35 1020 30.12 849 25.07 -0.8 30.6 81 -3.7 25.4
22:40 1020 30.12 849 25.07 -0.8 30.6 80 -3.7 25.3
22:45 1019 30.09 849 25.07 -0.8 30.5 80 -3.9 25.1
22:50 1019 30.09 849 25.07 -0.8 30.5 80 -3.8 25.2
22:55 1019 30.09 849 25.07 -0.8 30.5 80 -3.9 25
23:00 1020 30.12 849 25.07 -0.9 30.4 80 -3.9 25
23:05 1020 30.12 849 25.07 -0.9 30.3 81 -3.8 25.1
23:10 1020 30.12 849 25.07 -1 30.2 82 -3.7 25.4
23:15 1020 30.12 849 25.07 -1 30.2 82 -3.7 25.3
23:20 1020 30.12 849 25.07 -1.1 30.1 82 -3.8 25.2
23:25 1020 30.12 849 25.07 -1.1 30 82 -3.8 25.2
23:30 1020 30.12 849 25.07 -1.2 29.8 83 -3.7 25.3
23:35 1020 30.12 849 25.07 -1.3 29.7 83 -3.8 25.1
23:40 1020 30.12 849 25.07 -1.3 29.6 83 -3.9 25
23:45 1020 30.12 849 25.07 -1.4 29.5 83 -3.9 24.9
23:50 1020 30.12 849 25.07 -1.4 29.5 83 -3.9 25
23:55 1020 30.12 849 25.07 -1.4 29.4 84 -3.8 25.1
24:00 1020 30.12 849 25.07 -1.5 29.4 84 -3.8 25.2